Mountain Home, AR (72653)

9:11 AM CST on December 25, 2014 (GMT -0600)
Amateur Radio W7NMD | Change Station
CLOSE
Current Station
Personal Weather Station
Location: Mountain Home, AR
Elevation: 940 ft
Nearby Weather Stations

Elev 940 ft 36.35 °N, 92.40 °W | Updated 0 second ago

Clear
Clear
34.8 °F
Feels Like 30 °F
N
5.0
Wind Variable Wind from South
Gusts 7.0 mph

Today
High -- | Low -- °F
--% Chance of Precip.
Yesterday
High -- | Low -- °F
Precip. -- in
7:19 AM 5:00 PM
Waxing Crescent, 17% visible
Pressure 30.04 in
Visibility 9.0 miles
Clouds Clear
Windchill 30 °F
Dew Point 32 °F
Humidity 89%
Rainfall 0.00 in
Snow Depth Not available.
UV 1 out of 12
Pollen 2.50 out of 12
Air Quality Not available.
Flu Activity Not available.
METAR KBPK 251453Z AUTO 16006KT 9SM CLR 02/M01 A3003 RMK AO2 SLP173 T00171011 51018

More Conditions Fewer Conditions

Pressure 30.04 in
Visibility 9.0 miles
Clouds Clear
Windchill 30 °F
Dew Point 32 °F
Humidity 89%
Rainfall 0.00 in
Snow Depth Not available.
UV 1 out of 12
Pollen 2.50 out of 12
Air Quality Not available.
Flu Activity Not available.
METAR KBPK 251453Z AUTO 16006KT 9SM CLR 02/M01 A3003 RMK AO2 SLP173 T00171011 51018

More Conditions Fewer Conditions

10-Day Weather Forecast

Almanac

Astronomy

Dec. 25, 2014 Rise Set
Actual Time
Civil Twilight
Nautical Twilight
Astronomical Twilight
Moon
Length of Visible Light
Length of Day
Tomorrow will be .
, % of the Moon is Illuminated

Today's Extremes

State Highs State Lows

Community

WunderPhotos

Upload Photos

1,780,298 photos uploaded!

WunderBlogs® & News

Nearby

Air Quality

  Air Quality AQ Index Pollutant
Not available.

Snow Depth

Station Depth Elevation

Earthquake Activity

City Distance Mag. Time & Date
Minimum magnitude displayed is 2.5.

Coastal Water Temperatures

Place Temperature

Nearby Weather Stations